createdAt,value
2022-11-24T00:00:30.738Z,7.1
2022-11-24T00:01:32.304Z,7.1
2022-11-24T00:02:29.830Z,7
2022-11-24T00:03:29.683Z,7.1
2022-11-24T00:04:32.069Z,7
2022-11-24T00:05:29.743Z,7
2022-11-24T00:06:30.678Z,6.9
2022-11-24T00:07:33.545Z,6.9
2022-11-24T00:08:30.172Z,7
2022-11-24T00:09:30.035Z,7
2022-11-24T00:10:30.374Z,7.1
2022-11-24T00:11:30.109Z,7.2
2022-11-24T00:12:30.149Z,7.1
2022-11-24T00:13:32.098Z,7.1
2022-11-24T00:14:30.455Z,7.1
2022-11-24T00:15:30.326Z,7.1
2022-11-24T00:16:33.513Z,7.1
2022-11-24T00:17:30.452Z,7.2
2022-11-24T00:18:30.567Z,7.2
2022-11-24T00:19:32.596Z,7.1
2022-11-24T00:20:33.554Z,7.2
2022-11-24T00:21:30.753Z,7.2
2022-11-24T00:22:31.258Z,7.2
2022-11-24T00:23:30.891Z,7.3
2022-11-24T00:24:31.283Z,7.2
2022-11-24T00:25:32.432Z,7.1
2022-11-24T00:26:31.115Z,7.1
2022-11-24T00:27:31.177Z,7.1
2022-11-24T00:28:32.460Z,7.1
2022-11-24T00:29:31.352Z,7.1
2022-11-24T00:30:31.400Z,7.1
2022-11-24T00:31:32.130Z,7.1
2022-11-24T00:32:31.552Z,7.1
2022-11-24T00:33:31.655Z,7.1
2022-11-24T00:34:32.044Z,7
2022-11-24T00:35:31.784Z,7
2022-11-24T00:36:31.820Z,7
2022-11-24T00:37:31.905Z,7
2022-11-24T00:38:31.960Z,7
2022-11-24T00:39:32.045Z,7
2022-11-24T00:40:34.937Z,7
2022-11-24T00:41:32.236Z,7
2022-11-24T00:42:32.285Z,7
2022-11-24T00:43:32.327Z,6.9
2022-11-24T00:44:32.595Z,6.9
2022-11-24T00:45:32.547Z,7
2022-11-24T00:46:32.908Z,7
2022-11-24T00:47:32.671Z,7.1
2022-11-24T00:48:32.828Z,7.1
2022-11-24T00:49:32.820Z,7.1
2022-11-24T00:50:32.848Z,7
2022-11-24T00:51:32.959Z,7
2022-11-24T00:52:32.996Z,7.1
2022-11-24T00:53:33.074Z,7.1
2022-11-24T00:54:33.633Z,7.1
2022-11-24T00:55:38.242Z,7.1
2022-11-24T00:56:33.527Z,7.1
2022-11-24T00:57:33.381Z,7.2
2022-11-24T00:58:33.739Z,7.2
2022-11-24T00:59:33.533Z,7.2
2022-11-24T01:00:33.846Z,7.2
2022-11-24T01:01:33.771Z,7.1
2022-11-24T01:02:33.773Z,7.1
2022-11-24T01:03:33.832Z,7.1
2022-11-24T01:04:34.133Z,7.1
2022-11-24T01:05:33.983Z,7.2
2022-11-24T01:06:34.081Z,7.2
2022-11-24T01:07:34.168Z,7.1
2022-11-24T01:08:34.264Z,7.1
2022-11-24T01:09:34.251Z,7.1
2022-11-24T01:10:34.630Z,7.1
2022-11-24T01:11:34.531Z,7.1
2022-11-24T01:12:34.470Z,7.1
2022-11-24T01:13:34.562Z,7.2
2022-11-24T01:14:34.962Z,7.3
2022-11-24T01:15:34.729Z,7.3
2022-11-24T01:16:34.772Z,7.3
2022-11-24T01:17:34.838Z,7.3
2022-11-24T01:18:34.893Z,7.2
2022-11-24T01:19:34.922Z,7.2
2022-11-24T01:20:34.999Z,7.1
2022-11-24T01:21:35.073Z,7
2022-11-24T01:22:35.112Z,7.1
2022-11-24T01:23:35.187Z,7.1
2022-11-24T01:24:40.292Z,7.1
2022-11-24T01:25:35.293Z,7.1
2022-11-24T01:26:40.389Z,7.2
2022-11-24T01:27:35.437Z,7.2
2022-11-24T01:28:35.599Z,7.1
2022-11-24T01:29:35.589Z,7.1
2022-11-24T01:30:35.780Z,7.1
2022-11-24T01:31:35.773Z,7.2
2022-11-24T01:32:35.859Z,7.3
2022-11-24T01:33:35.924Z,7.2
2022-11-24T01:34:36.070Z,7.2
2022-11-24T01:35:36.036Z,7.3
2022-11-24T01:36:36.114Z,7.3
2022-11-24T01:37:36.220Z,7.2
2022-11-24T01:38:36.256Z,7.2
2022-11-24T01:39:36.348Z,7.1
2022-11-24T01:40:36.382Z,7.2
2022-11-24T01:41:36.479Z,7.2
2022-11-24T01:42:36.546Z,7.2
2022-11-24T01:43:36.622Z,7.2
2022-11-24T01:44:36.990Z,7.3
2022-11-24T01:45:36.782Z,7.3
2022-11-24T01:46:36.962Z,7.3
2022-11-24T01:47:36.927Z,7.2
2022-11-24T01:48:36.992Z,7.3
2022-11-24T01:49:37.105Z,7.3
2022-11-24T01:50:37.145Z,7.3
2022-11-24T01:51:37.239Z,7.3
2022-11-24T01:52:37.275Z,7.4
2022-11-24T01:53:37.352Z,7.4
2022-11-24T01:54:37.416Z,7.4
2022-11-24T01:55:37.477Z,7.3
2022-11-24T01:56:37.560Z,7.2
2022-11-24T01:57:37.665Z,7.3
2022-11-24T01:58:39.681Z,7.3
2022-11-24T01:59:37.802Z,7.3
2022-11-24T02:00:37.873Z,7.4
2022-11-24T02:01:37.996Z,7.4
2022-11-24T02:02:38.143Z,7.4
2022-11-24T02:03:38.097Z,7.4
2022-11-24T02:04:38.163Z,7.5
2022-11-24T02:05:38.275Z,7.4
2022-11-24T02:06:38.348Z,7.4
2022-11-24T02:07:38.557Z,7.4
2022-11-24T02:08:38.507Z,7.4
2022-11-24T02:09:38.557Z,7.4
2022-11-24T02:10:38.612Z,7.4
2022-11-24T02:11:38.734Z,7.5
2022-11-24T02:12:38.782Z,7.5
2022-11-24T02:13:38.860Z,7.5
2022-11-24T02:14:38.901Z,7.6
2022-11-24T02:15:39.023Z,7.6
2022-11-24T02:16:39.061Z,7.5
2022-11-24T02:17:39.131Z,7.5
2022-11-24T02:18:39.234Z,7.5
2022-11-24T02:19:39.279Z,7.6
2022-11-24T02:20:39.378Z,7.6
2022-11-24T02:21:39.476Z,7.6
2022-11-24T02:22:39.499Z,7.6
2022-11-24T02:23:39.573Z,7.6
2022-11-24T02:24:39.669Z,7.6
2022-11-24T02:25:39.749Z,7.6
2022-11-24T02:26:39.903Z,7.7
2022-11-24T02:27:39.925Z,7.7
2022-11-24T02:28:39.932Z,7.7
2022-11-24T02:29:39.988Z,7.7
2022-11-24T02:30:40.184Z,7.7
2022-11-24T02:31:40.115Z,7.6
2022-11-24T02:32:40.176Z,7.7
2022-11-24T02:33:40.220Z,7.6
2022-11-24T02:34:40.279Z,7.6
2022-11-24T02:35:40.366Z,7.7
2022-11-24T02:36:40.410Z,7.7
2022-11-24T02:37:40.471Z,7.6
2022-11-24T02:38:40.522Z,7.7
2022-11-24T02:39:40.630Z,7.8
2022-11-24T02:40:40.708Z,7.8
2022-11-24T02:41:40.814Z,7.8
2022-11-24T02:42:41.929Z,7.8
2022-11-24T02:43:40.870Z,7.7
2022-11-24T02:44:40.938Z,7.7
2022-11-24T02:45:41.012Z,7.7
2022-11-24T02:46:41.373Z,7.6
2022-11-24T02:47:41.189Z,7.6
2022-11-24T02:48:41.181Z,7.7
2022-11-24T02:49:41.242Z,7.7
2022-11-24T02:50:41.297Z,7.7
2022-11-24T02:51:41.370Z,7.7
2022-11-24T02:52:41.411Z,7.7
2022-11-24T02:53:41.474Z,7.6
2022-11-24T02:54:41.460Z,7.7
2022-11-24T02:55:41.555Z,7.7
2022-11-24T02:56:41.654Z,7.6
2022-11-24T02:57:41.678Z,7.7
2022-11-24T02:58:41.704Z,7.7
2022-11-24T02:59:41.811Z,7.6
2022-11-24T03:00:41.838Z,7.6
2022-11-24T03:01:42.010Z,7.6
2022-11-24T03:02:42.035Z,7.5
2022-11-24T03:03:42.072Z,7.5
2022-11-24T03:04:42.126Z,7.5
2022-11-24T03:05:42.212Z,7.4
2022-11-24T03:06:42.304Z,7.4
2022-11-24T03:07:42.445Z,7.4
2022-11-24T03:08:42.442Z,7.3
2022-11-24T03:09:42.537Z,7.3
2022-11-24T03:10:42.616Z,7.3
2022-11-24T03:11:42.778Z,7.4
2022-11-24T03:12:42.789Z,7.4
2022-11-24T03:13:42.841Z,7.3
2022-11-24T03:14:42.903Z,7.3
2022-11-24T03:15:43.014Z,7.4
2022-11-24T03:16:43.648Z,7.3
2022-11-24T03:17:43.129Z,7.4
2022-11-24T03:18:43.315Z,7.4
2022-11-24T03:19:43.272Z,7.4
2022-11-24T03:20:48.262Z,7.5
2022-11-24T03:21:43.444Z,7.5
2022-11-24T03:23:03.851Z,7.5
2022-11-24T03:23:46.428Z,7.4
2022-11-24T03:25:06.738Z,7.5
2022-11-24T03:27:14.407Z,7.6
2022-11-24T03:27:43.907Z,7.6
2022-11-24T03:28:43.929Z,7.6
2022-11-24T03:29:44.034Z,7.6
2022-11-24T03:30:44.097Z,7.6
2022-11-24T03:31:44.245Z,7.6
2022-11-24T03:32:44.239Z,7.5
2022-11-24T03:33:44.308Z,7.5
2022-11-24T03:34:44.382Z,7.5
2022-11-24T03:35:44.448Z,7.5
2022-11-24T03:36:44.516Z,7.5
2022-11-24T03:37:44.596Z,7.6
2022-11-24T03:38:44.689Z,7.6
2022-11-24T03:39:44.737Z,7.6
2022-11-24T03:40:44.774Z,7.6
2022-11-24T03:41:44.812Z,7.6
2022-11-24T03:42:44.881Z,7.6
2022-11-24T03:43:44.923Z,7.7
2022-11-24T03:44:45.003Z,7.7
2022-11-24T03:45:46.235Z,7.6
2022-11-24T03:46:45.161Z,7.6
2022-11-24T03:47:45.256Z,7.6
2022-11-24T03:48:45.295Z,7.7
2022-11-24T03:49:45.336Z,7.8
2022-11-24T03:50:45.450Z,7.8
2022-11-24T03:51:45.465Z,7.8
2022-11-24T03:52:45.544Z,7.8
2022-11-24T03:53:45.616Z,7.7
2022-11-24T03:54:45.706Z,7.7
2022-11-24T03:55:45.751Z,7.7
2022-11-24T03:56:45.866Z,7.7
2022-11-24T03:57:45.896Z,7.7
2022-11-24T03:58:46.170Z,7.7
2022-11-24T03:59:46.055Z,7.7
2022-11-24T04:00:46.175Z,7.8
2022-11-24T04:01:46.351Z,7.8
2022-11-24T04:02:46.372Z,7.8
2022-11-24T04:03:46.439Z,7.8
2022-11-24T04:04:49.687Z,7.8
2022-11-24T04:05:46.568Z,7.8
2022-11-24T04:06:46.607Z,7.8
2022-11-24T04:07:46.679Z,7.8
2022-11-24T04:08:46.781Z,7.8
2022-11-24T04:09:46.806Z,7.8
2022-11-24T04:10:46.831Z,7.8
2022-11-24T04:11:46.923Z,7.8
2022-11-24T04:12:47.105Z,7.7
2022-11-24T04:13:47.057Z,7.7
2022-11-24T04:14:47.126Z,7.7
2022-11-24T04:15:47.295Z,7.7
2022-11-24T04:16:47.277Z,7.7
2022-11-24T04:17:47.379Z,7.7
2022-11-24T04:18:47.447Z,7.8
2022-11-24T04:19:47.490Z,7.8
2022-11-24T04:20:47.579Z,7.7
2022-11-24T04:21:47.651Z,7.7
2022-11-24T04:22:47.726Z,7.6
2022-11-24T04:23:47.802Z,7.7
2022-11-24T04:24:47.887Z,7.7
2022-11-24T04:25:47.968Z,7.7
2022-11-24T04:26:48.268Z,7.7
2022-11-24T04:27:48.108Z,7.7
2022-11-24T04:28:48.170Z,7.7
2022-11-24T04:29:48.235Z,7.7
2022-11-24T04:31:30.305Z,7.7
2022-11-24T04:31:48.487Z,7.7
2022-11-24T04:32:48.449Z,7.7
2022-11-24T04:33:48.572Z,7.8
2022-11-24T04:34:48.595Z,7.8
2022-11-24T04:35:48.695Z,7.8
2022-11-24T04:36:48.737Z,7.8
2022-11-24T04:37:48.851Z,7.8
2022-11-24T04:39:19.319Z,7.8
2022-11-24T04:39:48.978Z,7.8
2022-11-24T04:40:49.081Z,7.8
2022-11-24T04:41:49.118Z,7.8
2022-11-24T04:42:49.233Z,7.8
2022-11-24T04:43:49.293Z,7.8
2022-11-24T04:44:49.388Z,7.8
2022-11-24T04:45:49.419Z,7.8
2022-11-24T04:46:49.541Z,7.8
2022-11-24T04:47:49.560Z,7.8
2022-11-24T04:48:49.635Z,7.8
2022-11-24T04:49:49.729Z,7.8
2022-11-24T04:50:49.775Z,7.8
2022-11-24T04:51:49.837Z,7.8
2022-11-24T04:52:49.888Z,7.8
2022-11-24T04:53:49.906Z,7.9
2022-11-24T04:54:50.023Z,7.8
2022-11-24T04:55:50.055Z,7.8
2022-11-24T04:56:50.102Z,7.9
2022-11-24T04:57:50.200Z,7.9
2022-11-24T04:58:50.219Z,7.9
2022-11-24T04:59:50.254Z,7.8
2022-11-24T05:00:50.375Z,7.9
2022-11-24T05:01:50.436Z,7.9
2022-11-24T05:02:50.474Z,7.9
2022-11-24T05:03:50.576Z,7.9
2022-11-24T05:04:50.589Z,7.9
2022-11-24T05:05:50.669Z,7.9
2022-11-24T05:06:50.721Z,7.9
2022-11-24T05:07:50.872Z,7.9
2022-11-24T05:08:50.894Z,7.8
2022-11-24T05:09:59.160Z,7.8
2022-11-24T05:10:51.060Z,7.8
2022-11-24T05:11:51.104Z,7.8
2022-11-24T05:12:51.511Z,7.8
2022-11-24T05:13:51.263Z,7.9
2022-11-24T05:14:51.330Z,7.9
2022-11-24T05:15:51.457Z,7.9
2022-11-24T05:16:51.514Z,7.8
2022-11-24T05:17:51.578Z,7.8
2022-11-24T05:18:51.679Z,7.8
2022-11-24T05:19:51.689Z,7.8
2022-11-24T05:20:51.785Z,7.9
2022-11-24T05:21:51.834Z,7.9
2022-11-24T05:22:51.966Z,7.9
2022-11-24T05:23:52.013Z,7.8
2022-11-24T05:24:52.125Z,7.8
2022-11-24T05:25:52.181Z,7.8
2022-11-24T05:26:52.245Z,7.9
2022-11-24T05:29:52.539Z,7.9
2022-11-24T05:30:52.591Z,7.9
2022-11-24T05:31:52.691Z,7.9
2022-11-24T05:32:52.752Z,7.9
2022-11-24T05:33:52.838Z,7.9
2022-11-24T05:34:52.904Z,7.9
2022-11-24T05:35:52.982Z,7.9
2022-11-24T05:36:53.133Z,7.9
2022-11-24T05:37:53.176Z,7.9
2022-11-24T05:38:53.221Z,7.8
2022-11-24T05:39:53.330Z,7.8
2022-11-24T05:40:53.389Z,7.8
2022-11-24T05:41:53.485Z,7.8
2022-11-24T05:42:53.572Z,7.8
2022-11-24T05:43:53.659Z,7.8
2022-11-24T05:44:53.764Z,7.8
2022-11-24T05:45:53.818Z,7.9
2022-11-24T05:46:53.974Z,7.9
2022-11-24T05:47:53.970Z,7.8
2022-11-24T05:48:54.070Z,7.8
2022-11-24T05:49:54.163Z,7.8
2022-11-24T05:50:54.210Z,7.9
2022-11-24T05:51:54.308Z,7.8
2022-11-24T05:52:54.409Z,7.8
2022-11-24T05:53:54.458Z,7.8
2022-11-24T05:54:54.546Z,7.8
2022-11-24T05:55:54.583Z,7.8
2022-11-24T05:56:54.668Z,7.8
2022-11-24T05:57:54.762Z,7.9
2022-11-24T05:58:54.849Z,7.9
2022-11-24T05:59:54.982Z,7.9
2022-11-24T06:00:55.027Z,7.8
2022-11-24T06:01:55.280Z,7.9
2022-11-24T06:02:55.296Z,7.8
2022-11-24T06:03:55.230Z,7.8
2022-11-24T06:04:55.357Z,7.8
2022-11-24T06:05:55.325Z,7.9
2022-11-24T06:06:55.403Z,7.9
2022-11-24T06:07:55.529Z,7.9
2022-11-24T06:08:55.507Z,8
2022-11-24T06:09:55.611Z,8
2022-11-24T06:10:55.632Z,8
2022-11-24T06:11:55.697Z,7.9
2022-11-24T06:12:55.767Z,7.9
2022-11-24T06:13:55.889Z,7.9
2022-11-24T06:14:55.927Z,7.9
2022-11-24T06:15:55.980Z,7.9
2022-11-24T06:16:56.081Z,7.9
2022-11-24T06:17:56.102Z,7.8
2022-11-24T06:18:56.258Z,7.8
2022-11-24T06:19:56.256Z,7.8
2022-11-24T06:21:10.117Z,7.8
2022-11-24T06:21:56.302Z,7.8
2022-11-24T06:22:56.368Z,7.8
2022-11-24T06:23:56.402Z,7.8
2022-11-24T06:24:56.437Z,7.8
2022-11-24T06:25:56.482Z,7.8
2022-11-24T06:26:56.547Z,7.8
2022-11-24T06:27:56.636Z,7.7
2022-11-24T06:28:56.708Z,7.6
2022-11-24T06:29:56.777Z,7.6
2022-11-24T06:30:56.856Z,7.6
2022-11-24T06:31:57.018Z,7.6
2022-11-24T06:32:56.981Z,7.6
2022-11-24T06:33:57.064Z,7.6
2022-11-24T06:34:57.163Z,7.7
2022-11-24T06:35:57.226Z,7.7
2022-11-24T06:36:57.359Z,7.7
2022-11-24T06:37:57.368Z,7.6
2022-11-24T06:38:57.449Z,7.7
2022-11-24T06:39:57.573Z,7.6
2022-11-24T06:40:57.639Z,7.6
2022-11-24T06:41:57.706Z,7.6
2022-11-24T06:42:57.777Z,7.5
2022-11-24T06:43:57.849Z,7.5
2022-11-24T06:44:57.967Z,7.5
2022-11-24T06:45:58.058Z,7.5
2022-11-24T06:46:58.059Z,7.5
2022-11-24T06:47:58.165Z,7.5
2022-11-24T06:48:58.288Z,7.6
2022-11-24T06:49:58.493Z,7.5
2022-11-24T06:50:58.423Z,7.5
2022-11-24T06:51:58.487Z,7.4
2022-11-24T06:52:58.585Z,7.4
2022-11-24T06:53:58.672Z,7.4
2022-11-24T06:54:58.751Z,7.5
2022-11-24T06:55:58.909Z,7.6
2022-11-24T06:56:58.893Z,7.6
2022-11-24T06:57:58.987Z,7.6
2022-11-24T06:58:59.062Z,7.6
2022-11-24T06:59:59.171Z,7.5
2022-11-24T07:00:59.235Z,7.4
2022-11-24T07:01:59.282Z,7.4
2022-11-24T07:02:59.386Z,7.5
2022-11-24T07:03:59.448Z,7.5
2022-11-24T07:04:59.519Z,7.5
2022-11-24T07:05:59.581Z,7.5
2022-11-24T07:06:59.663Z,7.5
2022-11-24T07:07:59.756Z,7.5
2022-11-24T07:08:59.861Z,7.5
2022-11-24T07:09:59.970Z,7.5
2022-11-24T07:12:08.449Z,7.5
2022-11-24T07:14:38.453Z,7.3
2022-11-24T07:17:08.489Z,7.3
2022-11-24T07:18:53.530Z,7.4
2022-11-24T07:19:53.555Z,7.4
2022-11-24T07:20:53.621Z,7.4
2022-11-24T07:21:53.676Z,7.4
2022-11-24T07:22:53.759Z,7.4
2022-11-24T07:23:53.794Z,7.4
2022-11-24T07:24:53.917Z,7.4
2022-11-24T07:25:53.943Z,7.4
2022-11-24T07:26:54.020Z,7.4
2022-11-24T07:27:54.111Z,7.4
2022-11-24T07:28:54.159Z,7.5
2022-11-24T07:29:54.274Z,7.5
2022-11-24T07:30:54.311Z,7.5
2022-11-24T07:31:54.436Z,7.5
2022-11-24T07:32:54.526Z,7.4
2022-11-24T07:33:54.564Z,7.4
2022-11-24T07:34:54.644Z,7.4
2022-11-24T07:35:54.728Z,7.4
2022-11-24T07:36:54.774Z,7.4
2022-11-24T07:37:54.887Z,7.3
2022-11-24T07:38:54.937Z,7.4
2022-11-24T07:39:55.003Z,7.3
2022-11-24T07:40:55.119Z,7.3
2022-11-24T07:41:55.171Z,7.3
2022-11-24T07:42:55.252Z,7.4
2022-11-24T07:43:55.308Z,7.4
2022-11-24T07:44:55.443Z,7.3
2022-11-24T07:45:55.539Z,7.4
2022-11-24T07:46:55.539Z,7.4
2022-11-24T07:47:55.656Z,7.4
2022-11-24T07:48:55.694Z,7.4
2022-11-24T07:49:55.781Z,7.5
2022-11-24T07:50:56.462Z,7.4
2022-11-24T07:51:57.968Z,7.3
2022-11-24T07:52:56.055Z,7.3
2022-11-24T07:53:56.115Z,7.3
2022-11-24T07:54:56.188Z,7.3
2022-11-24T07:55:56.242Z,7.4
2022-11-24T07:56:56.349Z,7.3
2022-11-24T07:57:56.435Z,7.3
2022-11-24T07:58:56.489Z,7.4
2022-11-24T07:59:56.554Z,7.4
2022-11-24T08:00:56.637Z,7.4
2022-11-24T08:01:56.800Z,7.4
2022-11-24T08:02:56.851Z,7.4
2022-11-24T08:03:56.988Z,7.5
2022-11-24T08:04:56.981Z,7.4
2022-11-24T08:06:57.212Z,7.4
2022-11-24T08:07:57.282Z,7.4
2022-11-24T08:08:57.250Z,7.4
2022-11-24T08:09:57.386Z,7.4
2022-11-24T08:10:57.461Z,7.4
2022-11-24T08:11:57.532Z,7.4
2022-11-24T08:12:57.728Z,7.4
2022-11-24T08:13:57.654Z,7.4
2022-11-24T08:14:57.759Z,7.4
2022-11-24T08:15:57.834Z,7.4
2022-11-24T08:16:57.963Z,7.5
2022-11-24T08:17:58.019Z,7.5
2022-11-24T08:47:46.950Z,7.5
2022-11-24T08:47:50.765Z,7.6
2022-11-24T08:48:45.141Z,7.7
2022-11-24T08:49:44.893Z,7.7
2022-11-24T08:50:44.926Z,7.7
2022-11-24T08:51:45.021Z,7.7
2022-11-24T08:53:04.489Z,7.8
2022-11-24T08:53:45.200Z,7.8
2022-11-24T08:55:45.373Z,7.8
2022-11-24T08:56:45.483Z,7.9
2022-11-24T08:58:16.676Z,7.9
2022-11-24T08:59:46.395Z,7.9
2022-11-24T09:00:45.728Z,7.9
2022-11-24T09:01:45.860Z,7.9
2022-11-24T09:20:20.670Z,8
2022-11-24T09:21:20.683Z,8
2022-11-24T09:22:20.697Z,8
2022-11-24T09:23:20.714Z,8.1
2022-11-24T09:24:20.844Z,8.1
2022-11-24T09:25:20.817Z,8.1
2022-11-24T09:26:20.864Z,8
2022-11-24T09:27:20.857Z,8
2022-11-24T09:28:20.911Z,8.1
2022-11-24T09:29:21.001Z,8
2022-11-24T09:30:21.054Z,8.1
2022-11-24T09:31:21.105Z,8.1
2022-11-24T09:32:21.035Z,8.1
2022-11-24T09:33:21.084Z,8
2022-11-24T09:34:21.113Z,8
2022-11-24T09:35:21.151Z,8.1
2022-11-24T09:36:21.200Z,8.1
2022-11-24T09:37:21.192Z,8.1
2022-11-24T09:38:21.267Z,8.1
2022-11-24T09:39:21.338Z,8.2
2022-11-24T09:40:21.439Z,8.1
2022-11-24T09:41:21.470Z,8.1
2022-11-24T09:42:21.580Z,8.1
2022-11-24T09:43:21.625Z,8.1
2022-11-24T09:44:21.708Z,8.1
2022-11-24T09:45:35.616Z,8.1
2022-11-24T09:46:21.856Z,8.1
2022-11-24T09:47:21.865Z,8.1
2022-11-24T09:48:21.882Z,8.1
2022-11-24T09:49:21.926Z,8.1
2022-11-24T09:50:21.968Z,8.1
2022-11-24T09:51:21.971Z,8.1
2022-11-24T09:52:22.047Z,8.1
2022-11-24T09:53:22.051Z,8.1
2022-11-24T09:54:22.078Z,8.1
2022-11-24T09:55:22.116Z,8.1
2022-11-24T09:56:22.139Z,8.1
2022-11-24T09:57:22.221Z,8.1
2022-11-24T09:58:22.198Z,8.1
2022-11-24T09:59:22.268Z,8.1
2022-11-24T10:00:22.280Z,8.1
2022-11-24T10:01:22.310Z,8.1
2022-11-24T10:02:22.364Z,8.1
2022-11-24T10:03:22.415Z,8.1
2022-11-24T10:04:22.509Z,8.1
2022-11-24T10:05:22.485Z,8.1
2022-11-24T10:06:22.494Z,8.1
2022-11-24T10:07:22.600Z,8.2
2022-11-24T10:08:22.645Z,8.3
2022-11-24T10:09:22.712Z,8.2
2022-11-24T10:10:24.707Z,8.2
2022-11-24T10:11:22.681Z,8.2
2022-11-24T10:12:22.742Z,8.3
2022-11-24T10:13:22.798Z,8.3
2022-11-24T10:14:22.791Z,8.3
2022-11-24T10:15:22.828Z,8.3
2022-11-24T10:16:22.887Z,8.3
2022-11-24T10:17:22.881Z,8.3
2022-11-24T10:18:22.953Z,8.3
2022-11-24T10:19:22.929Z,8.3
2022-11-24T10:20:23.021Z,8.3
2022-11-24T10:21:23.086Z,8.4
2022-11-24T10:22:23.053Z,8.4
2022-11-24T10:23:23.071Z,8.4
2022-11-24T10:24:23.139Z,8.4
2022-11-24T10:25:23.155Z,8.4
2022-11-24T10:26:23.185Z,8.4
2022-11-24T10:27:23.175Z,8.5
2022-11-24T10:28:23.257Z,8.5
2022-11-24T10:29:23.316Z,8.6
2022-11-24T10:30:23.707Z,8.7
2022-11-24T10:31:23.386Z,8.8
2022-11-24T10:32:23.350Z,8.8
2022-11-24T10:33:30.069Z,8.9
2022-11-24T10:34:23.484Z,9
2022-11-24T10:35:23.485Z,9.3
2022-11-24T10:36:23.737Z,10
2022-11-24T10:37:23.539Z,10.6
2022-11-24T10:38:23.563Z,10.8
2022-11-24T10:39:23.629Z,10.8
2022-11-24T10:40:48.988Z,10.5
2022-11-24T10:41:23.658Z,10.2
2022-11-24T10:42:23.736Z,10.1
2022-11-24T10:43:23.792Z,10.1
2022-11-24T10:44:23.797Z,10
2022-11-24T10:45:23.827Z,10
2022-11-24T10:46:24.022Z,9.8
2022-11-24T10:47:23.911Z,9.8
2022-11-24T10:48:27.723Z,9.7
2022-11-24T10:49:28.958Z,10
2022-11-24T10:50:24.033Z,10.6
2022-11-24T10:51:24.074Z,10.6
2022-11-24T10:52:24.145Z,10.8
2022-11-24T10:53:24.208Z,11
2022-11-24T10:54:24.256Z,11
2022-11-24T10:55:24.368Z,11
2022-11-24T10:56:24.760Z,10.9
2022-11-24T10:57:24.520Z,10.8
2022-11-24T10:58:24.633Z,10.5
2022-11-24T10:59:24.697Z,10.5
2022-11-24T11:00:24.867Z,10.4
2022-11-24T11:01:24.866Z,10.3
2022-11-24T11:02:24.997Z,10.3
2022-11-24T11:03:25.059Z,10.2
2022-11-24T11:04:25.140Z,10.1
2022-11-24T11:05:25.251Z,10
2022-11-24T11:06:25.268Z,9.9
2022-11-24T11:07:25.548Z,9.9
2022-11-24T11:08:25.366Z,9.8
2022-11-24T11:09:25.469Z,9.8
2022-11-24T11:10:25.547Z,9.7
2022-11-24T11:11:25.668Z,9.7
2022-11-24T11:12:43.166Z,9.8
2022-11-24T11:13:25.758Z,9.8
2022-11-24T11:14:25.793Z,9.8
2022-11-24T11:15:25.843Z,9.8
2022-11-24T11:17:34.364Z,9.7
2022-11-24T11:18:26.018Z,9.8
2022-11-24T11:19:47.726Z,9.9
2022-11-24T11:20:26.157Z,9.8
2022-11-24T11:21:26.208Z,9.8
2022-11-24T11:22:26.289Z,9.8
2022-11-24T11:23:26.343Z,9.8
2022-11-24T11:24:26.430Z,9.9
2022-11-24T11:25:26.535Z,9.9
2022-11-24T11:26:26.561Z,9.9
2022-11-24T11:27:26.660Z,9.8
2022-11-24T11:28:26.772Z,9.9
2022-11-24T11:31:26.968Z,10.1
2022-11-24T11:34:30.121Z,10.3
2022-11-24T11:35:27.184Z,10.6
2022-11-24T11:36:27.183Z,10.8
2022-11-24T11:37:27.219Z,10.6
2022-11-24T11:38:27.363Z,10.5
2022-11-24T11:39:27.337Z,10.4
2022-11-24T11:40:27.367Z,10.8
2022-11-24T11:41:27.405Z,11.5
2022-11-24T11:42:54.172Z,11.8
2022-11-24T11:43:27.440Z,11.6
2022-11-24T11:44:27.525Z,11.1
2022-11-24T11:45:27.548Z,10.8
2022-11-24T11:46:27.571Z,10.7
2022-11-24T11:47:27.563Z,10.9
2022-11-24T11:48:27.636Z,11.3
2022-11-24T11:49:27.641Z,11.3
2022-11-24T11:50:27.728Z,11.3
2022-11-24T11:51:27.792Z,11.2
2022-11-24T11:52:27.834Z,11.2
2022-11-24T11:53:27.925Z,11.1
2022-11-24T11:54:27.986Z,11
2022-11-24T11:55:28.301Z,11.1
2022-11-24T11:56:28.161Z,11.1
2022-11-24T11:57:28.212Z,11.1
2022-11-24T11:58:28.304Z,11.1
2022-11-24T11:59:28.387Z,10.8
2022-11-24T12:00:28.553Z,10.6
2022-11-24T12:01:28.552Z,10.7
2022-11-24T12:02:29.015Z,10.7
2022-11-24T12:03:28.759Z,10.7
2022-11-24T12:04:28.763Z,10.6
2022-11-24T12:05:28.852Z,10.8
2022-11-24T12:06:29.173Z,10.8
2022-11-24T12:07:29.017Z,10.7
2022-11-24T12:08:29.013Z,10.7
2022-11-24T12:09:29.118Z,11
2022-11-24T12:10:29.149Z,11.2
2022-11-24T12:11:29.160Z,11.2
2022-11-24T12:12:29.202Z,11.2
2022-11-24T12:13:29.229Z,11.5
2022-11-24T12:14:29.257Z,12
2022-11-24T12:15:29.321Z,12
2022-11-24T12:16:29.369Z,12.2
2022-11-24T12:17:29.357Z,12.1
2022-11-24T12:18:56.306Z,12
2022-11-24T12:19:31.259Z,12
2022-11-24T12:20:31.467Z,12.1
2022-11-24T12:21:31.342Z,12
2022-11-24T12:22:31.361Z,11.8
2022-11-24T12:23:31.386Z,11.7
2022-11-24T12:24:31.509Z,11.4
2022-11-24T12:25:31.521Z,11.3
2022-11-24T12:26:31.500Z,11.3
2022-11-24T12:27:31.659Z,11.3
2022-11-24T12:28:31.642Z,11.3
2022-11-24T12:29:32.049Z,11.2
2022-11-24T12:30:31.734Z,11.1
2022-11-24T12:31:31.797Z,11
2022-11-24T12:32:31.758Z,10.9
2022-11-24T12:33:31.794Z,10.9
2022-11-24T12:34:31.821Z,11
2022-11-24T12:35:31.896Z,10.9
2022-11-24T12:36:31.923Z,10.9
2022-11-24T12:37:31.932Z,10.9
2022-11-24T12:38:31.993Z,10.9
2022-11-24T12:39:32.201Z,10.9
2022-11-24T12:40:32.055Z,11
2022-11-24T12:41:47.534Z,10.9
2022-11-24T12:42:32.118Z,11
2022-11-24T12:43:32.144Z,11.3
2022-11-24T12:44:32.191Z,11.6
2022-11-24T12:45:32.388Z,11.5
2022-11-24T12:46:32.364Z,11.3
2022-11-24T12:47:32.332Z,11.3
2022-11-24T12:48:32.312Z,11.4
2022-11-24T12:49:32.466Z,11.3
2022-11-24T12:50:32.519Z,11.4
2022-11-24T12:51:32.454Z,11.7
2022-11-24T12:52:34.513Z,11.8
2022-11-24T12:53:33.926Z,11.9
2022-11-24T12:54:32.552Z,12
2022-11-24T12:55:32.734Z,12.1
2022-11-24T12:56:32.599Z,12.1
2022-11-24T12:57:32.637Z,12
2022-11-24T12:58:32.698Z,12.1
2022-11-24T12:59:33.123Z,12.2
2022-11-24T13:01:21.630Z,12.3
2022-11-24T13:01:32.950Z,12.5
2022-11-24T13:02:32.916Z,12.4
2022-11-24T13:03:32.918Z,12.5
2022-11-24T13:04:33.191Z,12.7
2022-11-24T13:05:32.953Z,12.8
2022-11-24T13:06:33.005Z,12.8
2022-11-24T13:07:33.036Z,12.7
2022-11-24T13:08:33.026Z,12.5
2022-11-24T13:09:33.072Z,12.6
2022-11-24T13:10:57.286Z,12.7
2022-11-24T13:11:33.185Z,12.7
2022-11-24T13:12:33.229Z,12.8
2022-11-24T13:13:33.313Z,12.8
2022-11-24T13:14:33.884Z,12.6
2022-11-24T13:15:45.450Z,12.2
2022-11-24T13:16:37.008Z,12
2022-11-24T13:17:39.561Z,12
2022-11-24T13:18:33.723Z,11.9
2022-11-24T13:19:33.725Z,11.8
2022-11-24T13:20:33.779Z,11.5
2022-11-24T13:21:33.756Z,11.5
2022-11-24T13:22:33.800Z,11.4
2022-11-24T13:23:33.810Z,11.3
2022-11-24T13:24:34.513Z,11.3
2022-11-24T13:25:33.905Z,11.4
2022-11-24T13:26:35.362Z,11.7
2022-11-24T13:27:33.930Z,11.8
2022-11-24T13:28:54.335Z,11.7
2022-11-24T13:29:33.988Z,11.7
2022-11-24T13:30:34.135Z,11.5
2022-11-24T13:31:34.187Z,11.4
2022-11-24T13:32:34.106Z,11.2
2022-11-24T13:33:34.135Z,11.2
2022-11-24T13:34:34.371Z,11.3
2022-11-24T13:35:34.233Z,11.3
2022-11-24T13:36:34.312Z,11.2
2022-11-24T13:38:34.383Z,11.2
2022-11-24T13:39:38.915Z,11.3
2022-11-24T13:40:34.539Z,11.2
2022-11-24T13:41:34.611Z,11.3
2022-11-24T13:42:41.262Z,11.2
2022-11-24T13:43:34.717Z,11.2
2022-11-24T13:44:35.011Z,11.2
2022-11-24T13:45:34.781Z,11.3
2022-11-24T13:46:34.911Z,11.3
2022-11-24T13:47:34.856Z,11.2
2022-11-24T13:48:34.854Z,11.2
2022-11-24T13:49:34.901Z,11.3
2022-11-24T13:50:34.939Z,11.3
2022-11-24T13:51:35.024Z,11.3
2022-11-24T13:52:35.000Z,11.4
2022-11-24T13:53:35.016Z,11.3
2022-11-24T13:54:42.318Z,11.3
2022-11-24T13:55:35.106Z,11.2
2022-11-24T13:56:35.333Z,11.1
2022-11-24T13:57:35.184Z,11.1
2022-11-24T13:58:35.282Z,11
2022-11-24T13:59:37.358Z,11
2022-11-24T14:00:35.427Z,10.9
2022-11-24T14:01:35.609Z,10.9
2022-11-24T14:02:35.622Z,10.9
2022-11-24T14:03:35.723Z,10.9
2022-11-24T14:04:35.809Z,10.9
2022-11-24T14:05:35.805Z,10.9
2022-11-24T14:06:35.903Z,10.9
2022-11-24T14:07:36.068Z,10.8
2022-11-24T14:08:36.017Z,10.9
2022-11-24T14:09:36.085Z,10.9
2022-11-24T14:10:36.170Z,10.9
2022-11-24T14:11:36.259Z,10.8
2022-11-24T14:12:36.307Z,10.8
2022-11-24T14:13:36.388Z,10.7
2022-11-24T14:14:36.670Z,10.8
2022-11-24T14:15:36.784Z,10.8
2022-11-24T14:16:37.501Z,10.8
2022-11-24T14:17:36.708Z,10.7
2022-11-24T14:18:36.821Z,10.7
2022-11-24T14:19:41.853Z,10.6
2022-11-24T14:21:13.501Z,10.5
2022-11-24T14:22:13.542Z,10.6
2022-11-24T14:23:13.610Z,10.6
2022-11-24T14:24:13.652Z,10.7
2022-11-24T14:25:13.726Z,10.7
2022-11-24T14:26:13.821Z,10.8
2022-11-24T14:27:13.865Z,10.7
2022-11-24T14:28:13.967Z,10.7
2022-11-24T14:29:13.973Z,10.6
2022-11-24T14:30:14.083Z,10.6
2022-11-24T14:31:14.464Z,10.5
2022-11-24T14:32:14.244Z,10.6
2022-11-24T14:33:14.260Z,10.5
2022-11-24T14:34:14.290Z,10.4
2022-11-24T14:35:14.382Z,10.5
2022-11-24T14:36:14.367Z,10.5
2022-11-24T14:37:14.395Z,10.5
2022-11-24T14:38:14.427Z,10.5
2022-11-24T14:39:14.489Z,10.4
2022-11-24T14:40:14.629Z,10.3
2022-11-24T14:41:14.820Z,10.5
2022-11-24T14:42:14.582Z,10.4
2022-11-24T14:43:14.731Z,10.3
2022-11-24T14:45:29.711Z,10.3
2022-11-24T14:46:14.766Z,10.4
2022-11-24T14:47:14.767Z,10.4